Time;durP1;ratioP1;P1;durP2;ratioP2;P2;SDS_P1;SDS_P2;PMS_P1;PMS_P2;Temp;Humidity;BMP_temperature;BMP_pressure;BME280_temperature;BME280_humidity;BME280_pressure;Samples;Min_cycle;Max_cycle;Signal;HPM_P1;HPM_P2
2021/10/07 00:00:14;;;;;;;0.10;0.10;;;;;;;;;;4959889;28;20074;-93
2021/10/07 00:02:40;;;;;;;0.10;0.10;;;;;;;;;;4943959;28;20050;-92
2021/10/07 00:05:07;;;;;;;0.10;0.10;;;;;;;;;;4958135;28;20042;-93
2021/10/07 00:07:33;;;;;;;0.10;0.10;;;;;;;;;;4975455;28;20042;-92
2021/10/07 00:09:59;;;;;;;0.10;0.10;;;;;;;;;;4943370;28;20085;-92
2021/10/07 00:12:25;;;;;;;0.10;0.10;;;;;;;;;;4943485;28;20132;-93
2021/10/07 00:14:51;;;;;;;0.10;0.10;;;;;;;;;;4943516;28;20042;-92
2021/10/07 00:17:16;;;;;;;0.10;0.10;;;;;;;;;;4943227;28;20398;-92
2021/10/07 00:19:42;;;;;;;0.10;0.10;;;;;;;;;;4943470;28;20104;-92
2021/10/07 00:22:08;;;;;;;0.10;0.10;;;;;;;;;;4959130;28;20046;-92
2021/10/07 00:24:34;;;;;;;0.10;0.10;;;;;;;;;;4959120;28;20482;-91
2021/10/07 00:27:00;;;;;;;0.10;0.10;;;;;;;;;;4943299;28;20045;-92
2021/10/07 00:31:56;;;;;;;0.10;0.10;;;;;;;;;;4959152;28;20050;-92
2021/10/07 00:34:46;;;;;;;0.10;0.10;;;;;;;;;;4943267;28;20073;-94
2021/10/07 00:39:57;;;;;;;0.10;0.10;;;;;;;;;;4961411;28;20401;-92
2021/10/07 00:42:23;;;;;;;0.10;0.10;;;;;;;;;;4943031;28;20136;-93
2021/10/07 00:44:49;;;;;;;0.10;0.10;;;;;;;;;;4943039;28;20046;-93
2021/10/07 00:49:08;;;;;;;0.10;0.10;;;;;;;;;;5050210;28;20462;-92
2021/10/07 00:51:34;;;;;;;0.20;0.20;;;;;;;;;;5015761;28;20448;-92
2021/10/07 00:54:00;;;;;;;0.10;0.10;;;;;;;;;;5016380;28;20045;-92
2021/10/07 00:56:26;;;;;;;0.10;0.10;;;;;;;;;;5015842;28;20337;-92
2021/10/07 00:58:52;;;;;;;0.10;0.10;;;;;;;;;;5015928;28;20201;-92
2021/10/07 01:01:18;;;;;;;0.10;0.10;;;;;;;;;;5032213;28;20438;-92
2021/10/07 01:03:44;;;;;;;0.10;0.10;;;;;;;;;;5032294;28;20041;-93
2021/10/07 01:06:10;;;;;;;0.10;0.10;;;;;;;;;;5015681;28;20513;-90
2021/10/07 01:08:37;;;;;;;0.10;0.10;;;;;;;;;;5015714;28;20041;-92
2021/10/07 01:11:02;;;;;;;0.10;0.10;;;;;;;;;;5015772;28;20072;-92
2021/10/07 01:13:28;;;;;;;0.10;0.10;;;;;;;;;;5015455;28;20445;-92
2021/10/07 01:16:00;;;;;;;0.10;0.10;;;;;;;;;;5015681;28;20128;-91
2021/10/07 01:18:26;;;;;;;0.10;0.10;;;;;;;;;;5015627;28;20041;-93
2021/10/07 01:20:52;;;;;;;0.10;0.10;;;;;;;;;;5015613;28;20436;-92
2021/10/07 01:23:18;;;;;;;0.10;0.10;;;;;;;;;;5015375;28;20033;-92
2021/10/07 01:25:44;;;;;;;0.10;0.10;;;;;;;;;;5031614;28;20452;-92
2021/10/07 01:28:10;;;;;;;0.10;0.10;;;;;;;;;;5031598;28;20053;-91
2021/10/07 01:30:36;;;;;;;0.10;0.10;;;;;;;;;;5014981;28;20132;-92
2021/10/07 01:33:02;;;;;;;0.10;0.10;;;;;;;;;;5032021;28;20068;-92
2021/10/07 01:35:28;;;;;;;0.10;0.10;;;;;;;;;;5015374;28;20052;-93
2021/10/07 01:37:55;;;;;;;0.10;0.10;;;;;;;;;;5031629;28;20041;-92
2021/10/07 01:40:21;;;;;;;0.10;0.10;;;;;;;;;;5014985;28;20499;-92
2021/10/07 01:42:47;;;;;;;0.10;0.10;;;;;;;;;;5031486;28;20067;-92
2021/10/07 01:45:14;;;;;;;0.10;0.10;;;;;;;;;;5031224;28;20046;-92
2021/10/07 01:47:40;;;;;;;0.10;0.10;;;;;;;;;;5031503;28;20400;-91
2021/10/07 01:50:06;;;;;;;0.10;0.10;;;;;;;;;;5014726;28;20064;-91
2021/10/07 01:52:32;;;;;;;0.10;0.10;;;;;;;;;;5031464;28;20045;-92
2021/10/07 01:54:58;;;;;;;0.10;0.10;;;;;;;;;;5031241;28;20045;-92
2021/10/07 01:57:24;;;;;;;0.10;0.10;;;;;;;;;;5014575;28;20220;-92
2021/10/07 01:59:50;;;;;;;0.10;0.10;;;;;;;;;;5021203;28;20085;-92
2021/10/07 02:02:16;;;;;;;0.10;0.10;;;;;;;;;;5017634;28;20048;-91
2021/10/07 02:04:42;;;;;;;0.10;0.10;;;;;;;;;;5017519;28;20401;-92
2021/10/07 02:07:08;;;;;;;0.10;0.10;;;;;;;;;;5001615;28;20044;-92
2021/10/07 02:09:34;;;;;;;0.10;0.10;;;;;;;;;;5017646;28;20072;-91
2021/10/07 02:12:00;;;;;;;0.17;0.17;;;;;;;;;;5001387;28;20044;-92
2021/10/07 02:14:26;;;;;;;0.10;0.10;;;;;;;;;;5000987;28;20052;-91
2021/10/07 02:16:52;;;;;;;0.10;0.10;;;;;;;;;;5001199;28;20091;-92
2021/10/07 02:19:18;;;;;;;0.10;0.10;;;;;;;;;;5017636;28;20037;-92
2021/10/07 02:21:44;;;;;;;0.10;0.10;;;;;;;;;;5001189;28;20124;-92
2021/10/07 02:24:10;;;;;;;0.10;0.10;;;;;;;;;;5000985;28;20041;-91
2021/10/07 02:26:37;;;;;;;0.10;0.10;;;;;;;;;;5017213;28;20033;-91
2021/10/07 02:29:03;;;;;;;0.10;0.10;;;;;;;;;;5017486;28;20172;-92
2021/10/07 02:31:29;;;;;;;0.10;0.10;;;;;;;;;;5017427;28;20034;-92
2021/10/07 02:33:55;;;;;;;0.10;0.10;;;;;;;;;;5017100;28;20042;-92
2021/10/07 02:36:21;;;;;;;0.10;0.10;;;;;;;;;;5017184;28;20077;-92
2021/10/07 02:38:47;;;;;;;0.10;0.10;;;;;;;;;;5017147;28;20041;-92
2021/10/07 02:41:13;;;;;;;0.10;0.10;;;;;;;;;;5001148;28;20052;-92
2021/10/07 02:43:39;;;;;;;0.20;0.20;;;;;;;;;;5001047;28;20103;-92
2021/10/07 02:46:05;;;;;;;0.10;0.10;;;;;;;;;;5017195;28;20537;-92
2021/10/07 02:48:31;;;;;;;0.10;0.10;;;;;;;;;;5000941;28;20060;-92
2021/10/07 02:50:57;;;;;;;0.10;0.10;;;;;;;;;;5016980;28;20400;-92
2021/10/07 02:53:23;;;;;;;0.10;0.10;;;;;;;;;;5017501;28;20075;-92
2021/10/07 02:55:49;;;;;;;0.10;0.10;;;;;;;;;;5000364;28;20052;-91
2021/10/07 02:58:15;;;;;;;0.10;0.10;;;;;;;;;;5000661;28;20041;-92
2021/10/07 03:00:41;;;;;;;0.10;0.10;;;;;;;;;;5016624;28;20195;-93
2021/10/07 03:03:07;;;;;;;0.10;0.10;;;;;;;;;;5017189;28;20517;-92
2021/10/07 03:05:34;;;;;;;0.10;0.10;;;;;;;;;;5016622;28;20037;-92
2021/10/07 03:08:00;;;;;;;0.10;0.10;;;;;;;;;;5016635;28;20048;-92
2021/10/07 03:10:26;;;;;;;0.10;0.10;;;;;;;;;;5015977;28;20080;-92
2021/10/07 03:12:52;;;;;;;0.10;0.10;;;;;;;;;;5000041;28;20044;-92
2021/10/07 03:15:18;;;;;;;0.10;0.10;;;;;;;;;;5016339;28;20038;-91
2021/10/07 03:17:44;;;;;;;0.10;0.10;;;;;;;;;;5000415;28;20164;-92
2021/10/07 03:20:11;;;;;;;0.10;0.10;;;;;;;;;;4999973;28;20509;-92
2021/10/07 03:22:37;;;;;;;0.10;0.10;;;;;;;;;;5016947;28;20360;-92
2021/10/07 03:25:03;;;;;;;0.10;0.10;;;;;;;;;;5000022;28;20132;-91
2021/10/07 03:27:29;;;;;;;0.10;0.10;;;;;;;;;;5032726;28;20481;-91
2021/10/07 03:29:55;;;;;;;0.10;0.10;;;;;;;;;;5016470;28;20396;-92
2021/10/07 03:32:21;;;;;;;0.10;0.10;;;;;;;;;;5000075;28;20137;-92
2021/10/07 03:34:47;;;;;;;0.10;0.10;;;;;;;;;;4999959;28;20038;-93
2021/10/07 03:37:12;;;;;;;0.10;0.10;;;;;;;;;;5016542;28;20041;-93
2021/10/07 03:39:38;;;;;;;0.10;0.10;;;;;;;;;;4999916;28;20041;-92
2021/10/07 03:42:04;;;;;;;0.10;0.10;;;;;;;;;;5000025;28;20038;-92
2021/10/07 03:44:30;;;;;;;0.10;0.10;;;;;;;;;;4999729;28;20061;-92
2021/10/07 03:46:56;;;;;;;0.10;0.10;;;;;;;;;;4999749;28;20052;-91
2021/10/07 03:49:22;;;;;;;0.10;0.10;;;;;;;;;;4999991;28;20042;-92
2021/10/07 03:51:48;;;;;;;0.10;0.10;;;;;;;;;;5016249;28;20116;-92
2021/10/07 03:54:14;;;;;;;0.10;0.10;;;;;;;;;;5016093;28;20095;-92
2021/10/07 03:56:40;;;;;;;0.10;0.10;;;;;;;;;;5016639;28;20037;-92
2021/10/07 03:59:06;;;;;;;0.10;0.10;;;;;;;;;;4999653;28;20232;-92
2021/10/07 04:01:32;;;;;;;0.10;0.10;;;;;;;;;;5016035;28;20224;-92
2021/10/07 04:03:58;;;;;;;0.10;0.10;;;;;;;;;;4999368;28;20044;-92
2021/10/07 04:06:24;;;;;;;0.10;0.10;;;;;;;;;;5016051;28;20052;-93
2021/10/07 04:08:50;;;;;;;0.10;0.10;;;;;;;;;;4999409;28;20037;-92
2021/10/07 04:11:16;;;;;;;0.10;0.10;;;;;;;;;;4999241;28;20048;-91
2021/10/07 04:13:42;;;;;;;0.10;0.10;;;;;;;;;;4999247;28;20034;-92
2021/10/07 04:16:09;;;;;;;0.10;0.10;;;;;;;;;;5015657;28;20401;-92
2021/10/07 04:18:35;;;;;;;0.10;0.10;;;;;;;;;;5032408;28;20045;-91
2021/10/07 04:21:01;;;;;;;0.10;0.10;;;;;;;;;;4999169;28;20049;-90
2021/10/07 04:23:27;;;;;;;0.20;0.20;;;;;;;;;;5015527;28;20128;-92
2021/10/07 04:25:53;;;;;;;0.10;0.10;;;;;;;;;;5015335;28;20045;-91
2021/10/07 04:28:19;;;;;;;0.10;0.10;;;;;;;;;;4998778;28;20044;-91
2021/10/07 04:30:45;;;;;;;0.10;0.10;;;;;;;;;;4999097;28;20080;-92
2021/10/07 04:33:11;;;;;;;0.10;0.10;;;;;;;;;;5031705;28;20404;-90
2021/10/07 04:35:42;;;;;;;0.10;0.10;;;;;;;;;;4999068;28;20040;-92
2021/10/07 04:38:08;;;;;;;0.10;0.10;;;;;;;;;;5015653;28;20052;-92
2021/10/07 04:40:35;;;;;;;0.10;0.10;;;;;;;;;;4999047;28;20091;-92
2021/10/07 04:43:01;;;;;;;0.10;0.10;;;;;;;;;;4999373;28;20417;-90
2021/10/07 04:45:27;;;;;;;0.10;0.10;;;;;;;;;;5015189;28;20385;-92
2021/10/07 04:47:53;;;;;;;0.10;0.10;;;;;;;;;;4998948;28;20064;-92
2021/10/07 04:50:19;;;;;;;0.10;0.10;;;;;;;;;;4998621;28;20045;-91
2021/10/07 04:52:45;;;;;;;0.10;0.10;;;;;;;;;;4998941;28;20116;-93
2021/10/07 04:55:11;;;;;;;0.10;0.10;;;;;;;;;;4998725;28;20504;-92
2021/10/07 04:57:37;;;;;;;0.10;0.10;;;;;;;;;;4998892;28;20096;-92
2021/10/07 05:00:06;;;;;;;0.10;0.10;;;;;;;;;;4998729;28;20512;-92
2021/10/07 05:02:35;;;;;;;0.10;0.10;;;;;;;;;;4998888;28;20397;-94
2021/10/07 05:05:01;;;;;;;0.10;0.10;;;;;;;;;;4998697;28;20054;-92
2021/10/07 05:07:27;;;;;;;0.20;0.20;;;;;;;;;;5015017;28;20452;-94
2021/10/07 05:09:53;;;;;;;0.10;0.10;;;;;;;;;;4998796;28;20426;-94
2021/10/07 05:12:19;;;;;;;0.10;0.10;;;;;;;;;;4998964;28;20103;-94
2021/10/07 05:14:45;;;;;;;0.10;0.10;;;;;;;;;;4998724;28;20457;-94
2021/10/07 05:17:11;;;;;;;0.10;0.10;;;;;;;;;;4998875;28;20045;-93
2021/10/07 05:19:37;;;;;;;0.10;0.10;;;;;;;;;;4998822;28;20128;-93
2021/10/07 05:22:03;;;;;;;0.10;0.10;;;;;;;;;;5014807;28;20049;-95
2021/10/07 05:24:30;;;;;;;0.10;0.10;;;;;;;;;;4998295;28;20046;-93
2021/10/07 05:26:56;;;;;;;0.10;0.10;;;;;;;;;;4998846;28;20116;-94
2021/10/07 05:29:22;;;;;;;0.10;0.10;;;;;;;;;;4998793;28;20041;-94
2021/10/07 05:31:49;;;;;;;0.10;0.10;;;;;;;;;;4998447;28;20038;-94
2021/10/07 05:34:19;;;;;;;0.10;0.10;;;;;;;;;;4999501;28;20048;-94
2021/10/07 05:36:45;;;;;;;0.10;0.10;;;;;;;;;;5002668;28;20116;-93
2021/10/07 05:39:11;;;;;;;0.10;0.10;;;;;;;;;;5018414;28;20054;-93
2021/10/07 05:41:37;;;;;;;0.10;0.10;;;;;;;;;;5018217;28;20107;-94
2021/10/07 05:44:03;;;;;;;0.10;0.10;;;;;;;;;;5002163;28;20049;-94
2021/10/07 05:46:29;;;;;;;0.10;0.10;;;;;;;;;;5001833;28;20041;-94
2021/10/07 05:48:55;;;;;;;0.10;0.10;;;;;;;;;;5002645;28;20137;-93
2021/10/07 05:51:21;;;;;;;0.10;0.10;;;;;;;;;;5018142;28;20127;-94
2021/10/07 05:53:47;;;;;;;0.10;0.10;;;;;;;;;;5001818;28;20477;-94
2021/10/07 05:56:16;;;;;;;0.10;0.10;;;;;;;;;;5034752;28;20120;-93
2021/10/07 05:58:42;;;;;;;0.10;0.10;;;;;;;;;;5002011;28;20080;-94
2021/10/07 06:01:08;;;;;;;0.00;0.00;;;;;;;;;;5001680;28;20041;-93
2021/10/07 06:03:34;;;;;;;0.10;0.10;;;;;;;;;;5017572;28;20409;-93
2021/10/07 06:06:00;;;;;;;0.10;0.10;;;;;;;;;;5001845;28;20049;-94
2021/10/07 06:08:26;;;;;;;0.10;0.10;;;;;;;;;;5017949;28;20500;-94
2021/10/07 06:10:52;;;;;;;0.10;0.10;;;;;;;;;;5017933;28;20370;-93
2021/10/07 06:13:18;;;;;;;0.10;0.10;;;;;;;;;;5017823;28;20037;-93
2021/10/07 06:15:44;;;;;;;0.10;0.10;;;;;;;;;;5001752;28;20038;-92
2021/10/07 06:18:10;;;;;;;0.10;0.10;;;;;;;;;;5017580;28;20064;-94
2021/10/07 06:20:36;;;;;;;0.10;0.10;;;;;;;;;;5001458;28;20127;-93
2021/10/07 06:23:04;;;;;;;0.10;0.10;;;;;;;;;;5001532;28;20128;-93
2021/10/07 06:25:30;;;;;;;0.10;0.10;;;;;;;;;;5018155;28;20380;-95
2021/10/07 06:27:56;;;;;;;0.10;0.10;;;;;;;;;;5017655;28;20137;-94
2021/10/07 06:30:22;;;;;;;0.10;0.10;;;;;;;;;;5001294;28;20077;-95
2021/10/07 06:32:49;;;;;;;0.10;0.10;;;;;;;;;;5001216;28;20136;-95
2021/10/07 06:35:15;;;;;;;0.10;0.10;;;;;;;;;;5001580;28;20437;-94
2021/10/07 06:37:41;;;;;;;0.10;0.10;;;;;;;;;;5017329;28;20128;-94
2021/10/07 06:40:08;;;;;;;0.10;0.10;;;;;;;;;;5017463;28;20076;-94
2021/10/07 06:42:34;;;;;;;0.10;0.10;;;;;;;;;;5017461;28;20037;-94
2021/10/07 06:45:01;;;;;;;0.10;0.10;;;;;;;;;;5017071;28;20099;-94
2021/10/07 06:47:27;;;;;;;0.10;0.10;;;;;;;;;;5016651;28;20061;-94
2021/10/07 06:49:53;;;;;;;0.10;0.10;;;;;;;;;;5001086;28;20049;-94
2021/10/07 06:52:19;;;;;;;0.10;0.10;;;;;;;;;;5000994;28;20132;-94
2021/10/07 06:54:45;;;;;;;0.10;0.10;;;;;;;;;;5001309;28;20068;-93
2021/10/07 06:57:11;;;;;;;0.10;0.10;;;;;;;;;;5017115;28;20566;-94
2021/10/07 06:59:37;;;;;;;0.10;0.10;;;;;;;;;;5017055;28;20100;-94
2021/10/07 07:02:03;;;;;;;0.10;0.10;;;;;;;;;;5000581;28;20037;-95
2021/10/07 07:04:31;;;;;;;0.10;0.10;;;;;;;;;;5000714;28;20393;-94
2021/10/07 07:06:57;;;;;;;0.10;0.10;;;;;;;;;;5000954;28;20076;-95
2021/10/07 07:09:23;;;;;;;0.10;0.10;;;;;;;;;;5000768;28;20053;-94
2021/10/07 07:11:50;;;;;;;0.10;0.10;;;;;;;;;;5000429;28;20127;-94
2021/10/07 07:14:16;;;;;;;0.10;0.10;;;;;;;;;;5016615;28;20563;-94
2021/10/07 07:16:42;;;;;;;0.10;0.10;;;;;;;;;;5000455;28;20073;-95
2021/10/07 07:19:11;;;;;;;0.10;0.10;;;;;;;;;;5000380;28;20037;-94
2021/10/07 07:21:37;;;;;;;0.10;0.10;;;;;;;;;;5000614;28;20124;-94
2021/10/07 07:24:03;;;;;;;0.10;0.10;;;;;;;;;;5000550;28;20053;-94
2021/10/07 07:26:29;;;;;;;0.10;0.10;;;;;;;;;;5016314;28;20068;-94
2021/10/07 07:28:57;;;;;;;0.10;0.10;;;;;;;;;;5016293;28;20224;-94
2021/10/07 07:31:23;;;;;;;0.10;0.10;;;;;;;;;;5000280;28;20125;-95
2021/10/07 07:33:49;;;;;;;0.10;0.10;;;;;;;;;;5000210;28;20041;-94
2021/10/07 07:36:16;;;;;;;0.10;0.10;;;;;;;;;;5000018;28;20503;-92
2021/10/07 07:38:42;;;;;;;0.20;0.20;;;;;;;;;;4999872;28;20129;-92
2021/10/07 07:41:08;;;;;;;0.10;0.10;;;;;;;;;;5000124;28;20060;-91
2021/10/07 07:43:34;;;;;;;0.10;0.10;;;;;;;;;;5016033;28;20082;-91
2021/10/07 07:46:00;;;;;;;0.10;0.10;;;;;;;;;;4999655;28;20045;-91
2021/10/07 07:48:26;;;;;;;0.10;0.10;;;;;;;;;;4999718;28;20045;-91
2021/10/07 07:50:52;;;;;;;0.10;0.10;;;;;;;;;;5000878;28;20041;-91
2021/10/07 07:53:18;;;;;;;0.10;0.10;;;;;;;;;;5000490;28;20038;-91
2021/10/07 07:55:44;;;;;;;0.10;0.10;;;;;;;;;;5023920;28;20033;-91
2021/10/07 07:58:11;;;;;;;0.10;0.10;;;;;;;;;;5018721;28;20063;-90
2021/10/07 08:00:37;;;;;;;0.10;0.10;;;;;;;;;;5019539;28;20029;-91
2021/10/07 08:03:03;;;;;;;0.10;0.10;;;;;;;;;;5020176;28;20041;-89
2021/10/07 08:05:29;;;;;;;0.10;0.10;;;;;;;;;;5039563;28;20093;-89
2021/10/07 08:07:55;;;;;;;0.10;0.10;;;;;;;;;;5022548;28;20093;-91
2021/10/07 08:10:21;;;;;;;0.10;0.10;;;;;;;;;;5011961;28;20390;-92
2021/10/07 08:12:48;;;;;;;0.10;0.10;;;;;;;;;;5015649;28;20038;-91
2021/10/07 08:15:13;;;;;;;0.10;0.10;;;;;;;;;;4999270;28;20077;-91
2021/10/07 08:17:40;;;;;;;0.10;0.10;;;;;;;;;;4999345;28;20397;-91
2021/10/07 08:20:06;;;;;;;0.10;0.10;;;;;;;;;;4999170;28;20073;-92
2021/10/07 08:22:32;;;;;;;0.10;0.10;;;;;;;;;;4999410;28;20145;-91
2021/10/07 08:24:58;;;;;;;0.10;0.10;;;;;;;;;;4998965;28;20128;-91
2021/10/07 08:27:26;;;;;;;0.20;0.20;;;;;;;;;;4998732;28;20199;-92
2021/10/07 08:29:52;;;;;;;0.10;0.10;;;;;;;;;;5015836;28;20431;-92
2021/10/07 08:32:18;;;;;;;0.10;0.10;;;;;;;;;;4998958;28;20393;-92
2021/10/07 08:34:44;;;;;;;0.10;0.10;;;;;;;;;;4998805;28;20040;-91
2021/10/07 08:37:10;;;;;;;0.10;0.10;;;;;;;;;;4998989;28;20421;-92
2021/10/07 08:39:37;;;;;;;0.38;0.20;;;;;;;;;;5031612;28;20099;-93
2021/10/07 08:42:03;;;;;;;0.10;0.10;;;;;;;;;;4998521;28;20507;-92
2021/10/07 08:44:29;;;;;;;0.10;0.10;;;;;;;;;;4998985;28;20128;-93
2021/10/07 08:46:55;;;;;;;0.10;0.10;;;;;;;;;;5015137;28;20059;-92
2021/10/07 08:49:23;;;;;;;0.10;0.10;;;;;;;;;;4998908;28;20053;-92
2021/10/07 08:51:49;;;;;;;0.10;0.10;;;;;;;;;;4998640;28;20073;-92
2021/10/07 08:54:15;;;;;;;0.10;0.10;;;;;;;;;;4998452;28;20148;-92
2021/10/07 08:56:41;;;;;;;0.10;0.10;;;;;;;;;;5015314;28;20458;-92
2021/10/07 08:59:07;;;;;;;0.10;0.10;;;;;;;;;;5015117;28;20037;-93
2021/10/07 09:01:36;;;;;;;0.10;0.10;;;;;;;;;;5015082;28;20056;-93
2021/10/07 09:04:21;;;;;;;0.10;0.10;;;;;;;;;;4999134;28;20037;-92
2021/10/07 09:06:48;;;;;;;0.10;0.10;;;;;;;;;;5031112;28;20042;-92
2021/10/07 09:09:14;;;;;;;0.10;0.10;;;;;;;;;;5016141;28;20050;-92
2021/10/07 09:11:40;;;;;;;0.10;0.10;;;;;;;;;;5002281;28;20037;-92
2021/10/07 09:14:07;;;;;;;0.10;0.10;;;;;;;;;;5002604;28;20037;-91
2021/10/07 09:16:46;;;;;;;0.10;0.10;;;;;;;;;;5018571;28;20489;-92
2021/10/07 09:19:21;;;;;;;0.10;0.10;;;;;;;;;;5018817;28;20041;-93
2021/10/07 09:21:48;;;;;;;0.10;0.10;;;;;;;;;;5018948;28;20046;-92
2021/10/07 09:24:30;;;;;;;0.10;0.10;;;;;;;;;;5018343;28;20128;-92
2021/10/07 09:27:03;;;;;;;0.50;0.50;;;;;;;;;;5018710;28;20131;-92
2021/10/07 09:29:33;;;;;;;0.10;0.10;;;;;;;;;;5018688;28;20509;-93
2021/10/07 09:31:59;;;;;;;0.10;0.10;;;;;;;;;;5002107;28;20040;-93
2021/10/07 09:34:36;;;;;;;0.10;0.10;;;;;;;;;;5019033;28;20148;-92
2021/10/07 09:37:03;;;;;;;0.10;0.10;;;;;;;;;;5002264;28;20045;-92
2021/10/07 09:39:32;;;;;;;0.10;0.10;;;;;;;;;;5018755;28;20037;-92
2021/10/07 09:42:05;;;;;;;0.10;0.10;;;;;;;;;;5018143;28;20049;-92
2021/10/07 09:44:30;;;;;;;0.10;0.10;;;;;;;;;;5001925;28;20037;-90
2021/10/07 09:46:56;;;;;;;0.20;0.20;;;;;;;;;;5001357;28;20092;-91
2021/10/07 09:49:43;;;;;;;0.10;0.10;;;;;;;;;;5001885;28;20053;-92
2021/10/07 09:52:09;;;;;;;0.10;0.10;;;;;;;;;;5034517;28;20117;-92
2021/10/07 09:54:37;;;;;;;0.10;0.10;;;;;;;;;;5017896;28;20140;-93
2021/10/07 09:57:04;;;;;;;0.10;0.10;;;;;;;;;;5018241;28;20042;-93
2021/10/07 09:59:30;;;;;;;0.20;0.20;;;;;;;;;;5017922;28;20038;-91
2021/10/07 10:01:56;;;;;;;0.10;0.10;;;;;;;;;;5018044;28;20045;-92
2021/10/07 10:04:26;;;;;;;0.13;0.13;;;;;;;;;;5017757;28;20034;-92
2021/10/07 10:06:52;;;;;;;0.10;0.10;;;;;;;;;;5017718;28;20596;-92
2021/10/07 10:09:22;;;;;;;0.10;0.10;;;;;;;;;;5017629;28;20443;-94
2021/10/07 10:11:51;;;;;;;0.10;0.10;;;;;;;;;;5017687;28;20045;-92
2021/10/07 10:14:18;;;;;;;0.10;0.10;;;;;;;;;;5018006;28;20389;-91
2021/10/07 10:16:44;;;;;;;0.10;0.10;;;;;;;;;;5017493;28;20099;-92
2021/10/07 10:19:10;;;;;;;0.10;0.10;;;;;;;;;;5001264;28;20045;-91
2021/10/07 10:21:37;;;;;;;0.10;0.10;;;;;;;;;;5000764;28;20080;-92
2021/10/07 10:24:03;;;;;;;0.10;0.10;;;;;;;;;;5001289;28;20127;-92
2021/10/07 10:26:29;;;;;;;0.10;0.10;;;;;;;;;;5001663;28;20088;-92
2021/10/07 10:28:56;;;;;;;0.10;0.10;;;;;;;;;;5017592;28;20060;-92
2021/10/07 10:31:40;;;;;;;0.10;0.10;;;;;;;;;;5017401;28;20041;-93
2021/10/07 10:34:08;;;;;;;0.10;0.10;;;;;;;;;;5001067;28;20042;-92
2021/10/07 10:36:35;;;;;;;0.10;0.10;;;;;;;;;;5017207;28;20496;-92
2021/10/07 10:39:13;;;;;;;0.10;0.10;;;;;;;;;;5017195;28;20051;-91
2021/10/07 10:41:57;;;;;;;0.10;0.10;;;;;;;;;;5017635;28;20095;-92
2021/10/07 10:44:40;;;;;;;0.10;0.10;;;;;;;;;;5034084;28;20546;-90
2021/10/07 10:47:06;;;;;;;0.40;0.40;;;;;;;;;;5001426;28;20048;-93
2021/10/07 10:49:39;;;;;;;0.10;0.10;;;;;;;;;;5017449;28;20041;-94
2021/10/07 10:52:31;;;;;;;0.10;0.10;;;;;;;;;;5017143;28;20111;-92
2021/10/07 10:54:58;;;;;;;0.10;0.10;;;;;;;;;;5014236;28;20049;-92
2021/10/07 10:57:24;;;;;;;0.10;0.10;;;;;;;;;;5016759;28;20045;-93
2021/10/07 10:59:50;;;;;;;0.55;0.20;;;;;;;;;;5017047;28;20048;-92
2021/10/07 11:02:21;;;;;;;0.10;0.10;;;;;;;;;;5016935;28;20453;-92
2021/10/07 11:04:48;;;;;;;0.10;0.10;;;;;;;;;;5033272;28;20044;-93
2021/10/07 11:07:22;;;;;;;0.10;0.10;;;;;;;;;;5017081;28;20118;-92
2021/10/07 11:09:54;;;;;;;0.10;0.10;;;;;;;;;;5000163;28;20405;-92
2021/10/07 11:12:20;;;;;;;0.20;0.20;;;;;;;;;;5017296;28;20132;-92
2021/10/07 11:14:47;;;;;;;0.10;0.10;;;;;;;;;;5016907;28;20034;-92
2021/10/07 11:17:14;;;;;;;0.20;0.20;;;;;;;;;;5016362;28;20443;-92
2021/10/07 11:19:40;;;;;;;0.10;0.10;;;;;;;;;;5000402;28;20091;-92
2021/10/07 11:22:09;;;;;;;0.10;0.10;;;;;;;;;;5000482;28;20132;-93
2021/10/07 11:24:58;;;;;;;0.10;0.10;;;;;;;;;;5016606;28;20385;-92
2021/10/07 11:27:35;;;;;;;0.30;0.30;;;;;;;;;;5016053;28;20034;-93
2021/10/07 11:30:02;;;;;;;0.20;0.20;;;;;;;;;;5016106;28;20046;-92
2021/10/07 11:32:29;;;;;;;0.10;0.10;;;;;;;;;;4999406;28;20037;-94
2021/10/07 11:35:04;;;;;;;0.10;0.10;;;;;;;;;;5032572;28;20041;-92
2021/10/07 11:37:46;;;;;;;0.10;0.10;;;;;;;;;;5016084;28;20049;-92
2021/10/07 11:40:23;;;;;;;0.10;0.10;;;;;;;;;;4999874;28;20475;-92
2021/10/07 11:42:49;;;;;;;0.10;0.10;;;;;;;;;;5016042;28;20288;-92
2021/10/07 11:45:18;;;;;;;0.10;0.10;;;;;;;;;;4999776;28;20524;-92
2021/10/07 11:47:44;;;;;;;0.10;0.10;;;;;;;;;;5015861;28;20057;-93
2021/10/07 11:50:14;;;;;;;0.13;0.13;;;;;;;;;;4999592;28;20489;-92
2021/10/07 11:52:40;;;;;;;0.10;0.10;;;;;;;;;;4999775;28;20045;-92
2021/10/07 11:55:06;;;;;;;0.10;0.10;;;;;;;;;;5016435;28;20043;-91
2021/10/07 11:57:32;;;;;;;0.10;0.10;;;;;;;;;;4999808;28;20099;-93
2021/10/07 11:59:59;;;;;;;0.10;0.10;;;;;;;;;;4999781;28;20048;-93
2021/10/07 12:02:25;;;;;;;0.50;0.50;;;;;;;;;;5016146;28;20041;-92
2021/10/07 12:04:50;;;;;;;0.20;0.20;;;;;;;;;;5015452;28;20455;-93
2021/10/07 12:07:17;;;;;;;0.10;0.10;;;;;;;;;;5015767;28;20041;-93
2021/10/07 12:09:43;;;;;;;0.10;0.10;;;;;;;;;;5015694;28;20484;-93
2021/10/07 12:12:09;;;;;;;0.10;0.10;;;;;;;;;;5032500;28;20326;-93
2021/10/07 12:14:35;;;;;;;0.10;0.10;;;;;;;;;;5016137;28;20050;-93
2021/10/07 12:17:02;;;;;;;0.10;0.10;;;;;;;;;;5015807;28;20072;-93
2021/10/07 12:19:28;;;;;;;0.20;0.20;;;;;;;;;;4999555;28;20484;-94
2021/10/07 12:22:00;;;;;;;0.20;0.20;;;;;;;;;;5015639;28;20048;-92
2021/10/07 12:24:30;;;;;;;0.30;0.30;;;;;;;;;;4999406;28;20365;-92
2021/10/07 12:26:56;;;;;;;0.10;0.10;;;;;;;;;;5015504;28;20037;-92
2021/10/07 12:29:26;;;;;;;0.10;0.10;;;;;;;;;;4998934;28;20088;-92
2021/10/07 12:32:02;;;;;;;0.10;0.10;;;;;;;;;;4999174;28;20496;-92
2021/10/07 12:34:28;;;;;;;0.75;0.75;;;;;;;;;;5031803;28;20120;-92
2021/10/07 12:36:55;;;;;;;0.10;0.10;;;;;;;;;;5015342;28;20041;-94
2021/10/07 12:39:40;;;;;;;0.10;0.10;;;;;;;;;;4998821;28;20107;-92
2021/10/07 12:42:23;;;;;;;0.30;0.22;;;;;;;;;;5015051;28;20064;-93
2021/10/07 12:44:53;;;;;;;0.20;0.20;;;;;;;;;;4998981;28;20527;-92
2021/10/07 12:47:20;;;;;;;0.20;0.20;;;;;;;;;;4998388;28;20128;-92
2021/10/07 12:49:50;;;;;;;0.10;0.10;;;;;;;;;;4998929;28;20049;-93
2021/10/07 12:52:46;;;;;;;0.10;0.10;;;;;;;;;;5015698;28;20481;-92
2021/10/07 12:55:13;;;;;;;0.10;0.10;;;;;;;;;;5018847;28;20045;-92
2021/10/07 12:57:44;;;;;;;0.10;0.10;;;;;;;;;;4998763;28;20041;-93
2021/10/07 13:00:19;;;;;;;0.52;0.52;;;;;;;;;;5031665;28;20052;-92
2021/10/07 13:02:45;;;;;;;0.10;0.10;;;;;;;;;;5031390;28;20137;-93
2021/10/07 13:05:12;;;;;;;0.10;0.10;;;;;;;;;;5015089;28;20048;-94
2021/10/07 13:07:37;;;;;;;0.10;0.10;;;;;;;;;;5015348;28;20041;-93
2021/10/07 13:10:04;;;;;;;0.10;0.10;;;;;;;;;;4999034;28;20046;-92
2021/10/07 13:12:30;;;;;;;0.10;0.10;;;;;;;;;;5015195;28;20540;-93
2021/10/07 13:14:56;;;;;;;0.10;0.10;;;;;;;;;;5015152;28;20087;-93
2021/10/07 13:17:22;;;;;;;0.10;0.10;;;;;;;;;;5015095;28;20044;-93
2021/10/07 13:19:48;;;;;;;0.10;0.10;;;;;;;;;;4999432;28;20081;-92
2021/10/07 13:22:14;;;;;;;0.10;0.10;;;;;;;;;;5014976;28;20370;-91
2021/10/07 13:24:41;;;;;;;0.10;0.10;;;;;;;;;;5014963;28;20125;-93
2021/10/07 13:27:10;;;;;;;0.17;0.17;;;;;;;;;;5015000;28;20040;-93
2021/10/07 13:29:36;;;;;;;0.10;0.10;;;;;;;;;;4998958;28;20050;-91
2021/10/07 13:32:02;;;;;;;0.10;0.10;;;;;;;;;;4998538;28;20128;-92
2021/10/07 13:34:28;;;;;;;0.10;0.10;;;;;;;;;;4998345;28;20076;-93
2021/10/07 13:36:54;;;;;;;0.10;0.10;;;;;;;;;;5014892;28;20048;-93
2021/10/07 13:39:20;;;;;;;0.20;0.20;;;;;;;;;;4998531;28;20037;-93
2021/10/07 13:41:46;;;;;;;0.10;0.10;;;;;;;;;;5014771;28;20037;-91
2021/10/07 13:44:13;;;;;;;0.20;0.20;;;;;;;;;;4998670;28;20076;-92
2021/10/07 13:46:39;;;;;;;0.45;0.45;;;;;;;;;;5014773;28;20132;-93
2021/10/07 13:49:05;;;;;;;0.10;0.10;;;;;;;;;;4998738;28;20053;-93
2021/10/07 13:51:31;;;;;;;0.20;0.20;;;;;;;;;;4998596;28;20453;-92
2021/10/07 13:53:58;;;;;;;0.10;0.10;;;;;;;;;;5014894;28;20033;-92
2021/10/07 13:56:24;;;;;;;0.10;0.10;;;;;;;;;;5000733;28;20045;-93
2021/10/07 13:58:50;;;;;;;0.10;0.10;;;;;;;;;;5018638;28;20446;-93
2021/10/07 14:01:16;;;;;;;0.47;0.20;;;;;;;;;;5002103;28;20044;-93
2021/10/07 14:03:42;;;;;;;0.10;0.10;;;;;;;;;;5002048;28;20038;-93
2021/10/07 14:06:08;;;;;;;0.10;0.10;;;;;;;;;;5002073;28;20100;-93
2021/10/07 14:08:34;;;;;;;0.10;0.10;;;;;;;;;;5018129;28;20073;-93
2021/10/07 14:11:05;;;;;;;0.10;0.10;;;;;;;;;;5018403;28;20076;-91
2021/10/07 14:13:32;;;;;;;0.17;0.17;;;;;;;;;;5002168;28;20042;-93
2021/10/07 14:15:58;;;;;;;0.10;0.10;;;;;;;;;;5019037;28;20041;-92
2021/10/07 14:18:24;;;;;;;0.10;0.10;;;;;;;;;;5001776;28;20102;-93
2021/10/07 14:20:50;;;;;;;0.30;0.30;;;;;;;;;;5001784;28;20041;-93
2021/10/07 14:23:16;;;;;;;0.20;0.20;;;;;;;;;;5017809;28;20213;-93
2021/10/07 14:25:42;;;;;;;0.10;0.10;;;;;;;;;;5017742;28;20526;-94
2021/10/07 14:28:08;;;;;;;0.10;0.10;;;;;;;;;;5002137;28;20128;-93
2021/10/07 14:30:34;;;;;;;0.10;0.10;;;;;;;;;;5017910;28;20130;-93
2021/10/07 14:33:00;;;;;;;0.10;0.10;;;;;;;;;;5018177;28;20042;-92
2021/10/07 14:35:26;;;;;;;0.10;0.10;;;;;;;;;;5007198;28;20037;-91
2021/10/07 14:37:52;;;;;;;0.10;0.10;;;;;;;;;;5023052;28;20026;-92
2021/10/07 14:40:20;;;;;;;0.32;0.32;;;;;;;;;;5024059;28;20029;-91
2021/10/07 14:42:47;;;;;;;0.20;0.20;;;;;;;;;;5024036;28;20033;-92
2021/10/07 14:45:13;;;;;;;0.10;0.10;;;;;;;;;;5040937;28;20181;-90
2021/10/07 14:47:39;;;;;;;0.30;0.30;;;;;;;;;;5040910;28;20076;-90
2021/10/07 14:50:06;;;;;;;0.10;0.10;;;;;;;;;;5038896;28;20049;-93